createdAt,value
2023-12-30T00:00:30.370Z,95226.50
2023-12-30T00:03:00.476Z,95225.84
2023-12-30T00:05:30.511Z,95227.94
2023-12-30T00:07:59.627Z,95220.75
2023-12-30T00:10:29.956Z,95218.31
2023-12-30T00:13:01.288Z,95222.16
2023-12-30T00:15:30.596Z,95225.88
2023-12-30T00:17:59.762Z,95224.44
2023-12-30T00:20:28.935Z,95226.75
2023-12-30T00:22:58.087Z,95229.63
2023-12-30T00:25:27.215Z,95223.50
2023-12-30T00:27:57.302Z,95224.50
2023-12-30T00:30:27.980Z,95228.00
2023-12-30T00:32:57.246Z,95218.88
2023-12-30T00:35:26.388Z,95234.56
2023-12-30T00:37:55.852Z,95217.25
2023-12-30T00:40:27.138Z,95229.44
2023-12-30T00:42:57.560Z,95225.53
2023-12-30T00:45:28.289Z,95227.78
2023-12-30T00:47:57.586Z,95232.03
2023-12-30T00:50:27.073Z,95234.09
2023-12-30T00:52:56.203Z,95231.88
2023-12-30T00:55:25.422Z,95231.41
2023-12-30T00:57:54.495Z,95243.13
2023-12-30T01:00:23.601Z,95236.19
2023-12-30T01:02:54.188Z,95234.09
2023-12-30T01:05:23.476Z,95233.53
2023-12-30T01:07:52.708Z,95235.47
2023-12-30T01:10:21.976Z,95234.47
2023-12-30T01:12:51.216Z,95235.97
2023-12-30T01:15:20.705Z,95231.75
2023-12-30T01:17:49.914Z,95232.69
2023-12-30T01:20:20.625Z,95232.78
2023-12-30T01:22:49.816Z,95231.41
2023-12-30T01:25:19.896Z,95232.72
2023-12-30T01:27:49.115Z,95239.16
2023-12-30T01:30:18.455Z,95229.78
2023-12-30T01:32:47.909Z,95230.75
2023-12-30T01:35:17.256Z,95227.06
2023-12-30T01:37:47.766Z,95227.16
2023-12-30T01:40:17.008Z,95225.88
2023-12-30T01:42:46.198Z,95221.63
2023-12-30T01:45:15.268Z,95219.66
2023-12-30T01:47:44.410Z,95212.72
2023-12-30T01:50:14.566Z,95219.41
2023-12-30T01:52:45.765Z,95225.22
2023-12-30T01:55:17.605Z,95219.91
2023-12-30T01:57:48.265Z,95221.72
2023-12-30T02:00:22.198Z,95215.13
2023-12-30T02:02:51.554Z,95215.28
2023-12-30T02:05:21.439Z,95214.59
2023-12-30T02:07:50.822Z,95213.03
2023-12-30T02:10:21.773Z,95215.59
2023-12-30T02:12:51.058Z,95212.91
2023-12-30T02:15:23.098Z,95211.03
2023-12-30T02:17:53.718Z,95204.31
2023-12-30T02:20:26.963Z,95200.44
2023-12-30T02:22:57.476Z,95204.66
2023-12-30T02:25:26.572Z,95210.22
2023-12-30T02:27:55.690Z,95194.31
2023-12-30T02:30:25.839Z,95195.84
2023-12-30T02:32:59.673Z,95192.25
2023-12-30T02:35:29.649Z,95188.19
2023-12-30T02:38:00.171Z,95193.31
2023-12-30T02:40:29.534Z,95187.75
2023-12-30T02:42:58.761Z,95187.75
2023-12-30T02:45:27.953Z,95194.09
2023-12-30T02:47:57.202Z,95190.66
2023-12-30T02:50:26.774Z,95191.47
2023-12-30T02:52:55.840Z,95191.09
2023-12-30T02:55:26.276Z,95201.38
2023-12-30T02:57:55.417Z,95195.16
2023-12-30T03:00:24.774Z,95196.03
2023-12-30T03:02:53.812Z,95189.06
2023-12-30T03:05:23.014Z,95193.09
2023-12-30T03:07:52.193Z,95194.41
2023-12-30T03:10:21.562Z,95190.41
2023-12-30T03:12:52.165Z,95188.34
2023-12-30T03:15:21.893Z,95193.00
2023-12-30T03:17:51.493Z,95195.94
2023-12-30T03:20:20.685Z,95195.19
2023-12-30T03:22:49.806Z,95193.38
2023-12-30T03:25:18.832Z,95198.22
2023-12-30T03:27:49.300Z,95203.22
2023-12-30T03:30:20.087Z,95202.88
2023-12-30T03:32:49.224Z,95204.97
2023-12-30T03:35:21.490Z,95212.00
2023-12-30T03:37:50.738Z,95205.56
2023-12-30T03:40:19.949Z,95210.72
2023-12-30T03:42:49.336Z,95211.34
2023-12-30T03:45:19.856Z,95210.25
2023-12-30T03:47:49.207Z,95208.44
2023-12-30T03:50:18.363Z,95217.63
2023-12-30T03:52:48.394Z,95214.66
2023-12-30T03:55:17.760Z,95214.22
2023-12-30T03:57:48.130Z,95221.22
2023-12-30T04:00:18.076Z,95223.69
2023-12-30T04:02:49.323Z,95225.88
2023-12-30T04:05:18.956Z,95216.09
2023-12-30T04:07:48.193Z,95230.31
2023-12-30T04:10:19.098Z,95218.06
2023-12-30T04:12:48.360Z,95228.34
2023-12-30T04:15:17.466Z,95226.59
2023-12-30T04:17:46.636Z,95218.59
2023-12-30T04:20:17.629Z,95221.88
2023-12-30T04:22:46.715Z,95223.34
2023-12-30T04:25:15.902Z,95227.28
2023-12-30T04:27:44.894Z,95226.16
2023-12-30T04:30:16.039Z,95232.84
2023-12-30T04:32:45.297Z,95231.88
2023-12-30T04:35:14.357Z,95232.69
2023-12-30T04:37:44.930Z,95233.50
2023-12-30T04:40:14.705Z,95246.94
2023-12-30T04:42:43.863Z,95249.38
2023-12-30T04:45:14.329Z,95251.22
2023-12-30T04:47:43.741Z,95254.16
2023-12-30T04:50:12.850Z,95255.00
2023-12-30T04:52:42.765Z,95254.69
2023-12-30T04:55:13.600Z,95253.63
2023-12-30T04:57:42.779Z,95257.84
2023-12-30T05:00:12.867Z,95252.19
2023-12-30T05:02:41.916Z,95255.59
2023-12-30T05:05:10.998Z,95255.47
2023-12-30T05:07:40.182Z,95259.38
2023-12-30T05:10:12.843Z,95257.75
2023-12-30T05:12:42.153Z,95268.34
2023-12-30T05:15:14.638Z,95265.56
2023-12-30T05:17:44.166Z,95263.25
2023-12-30T05:20:18.082Z,95267.00
2023-12-30T05:22:50.187Z,95267.63
2023-12-30T05:25:20.882Z,95275.28
2023-12-30T05:27:49.986Z,95271.50
2023-12-30T05:30:19.098Z,95266.00
2023-12-30T05:32:48.312Z,95270.19
2023-12-30T05:35:17.866Z,95273.13
2023-12-30T05:37:47.009Z,95271.66
2023-12-30T05:40:16.652Z,95274.41
2023-12-30T05:42:47.342Z,95274.28
2023-12-30T05:45:17.217Z,95274.59
2023-12-30T05:47:46.728Z,95270.19
2023-12-30T05:50:16.051Z,95264.19
2023-12-30T05:52:45.532Z,95264.50
2023-12-30T05:55:15.573Z,95268.91
2023-12-30T05:57:44.885Z,95272.66
2023-12-30T06:00:17.604Z,95269.06
2023-12-30T06:02:46.906Z,95274.47
2023-12-30T06:05:16.342Z,95272.03
2023-12-30T06:07:45.448Z,95274.63
2023-12-30T06:10:14.612Z,95279.03
2023-12-30T06:12:43.698Z,95278.50
2023-12-30T06:15:13.106Z,95274.13
2023-12-30T06:17:43.704Z,95276.06
2023-12-30T06:20:13.291Z,95281.59
2023-12-30T06:22:42.386Z,95283.72
2023-12-30T06:25:11.648Z,95280.97
2023-12-30T06:27:40.880Z,95284.84
2023-12-30T06:30:11.152Z,95280.59
2023-12-30T06:32:40.603Z,95289.06
2023-12-30T06:35:11.662Z,95288.78
2023-12-30T06:37:40.699Z,95289.56
2023-12-30T06:40:11.316Z,95292.38
2023-12-30T06:42:40.535Z,95292.84
2023-12-30T06:45:10.866Z,95296.88
2023-12-30T06:47:40.136Z,95302.91
2023-12-30T06:50:13.852Z,95299.66
2023-12-30T06:52:43.206Z,95301.47
2023-12-30T06:55:20.759Z,95314.78
2023-12-30T06:57:55.415Z,95309.25
2023-12-30T07:00:24.656Z,95317.53
2023-12-30T07:02:53.893Z,95315.28
2023-12-30T07:05:24.489Z,95324.06
2023-12-30T07:07:53.957Z,95318.53
2023-12-30T07:10:23.024Z,95317.03
2023-12-30T07:12:52.304Z,95326.44
2023-12-30T07:15:21.822Z,95324.75
2023-12-30T07:17:51.193Z,95325.19
2023-12-30T07:20:20.570Z,95330.03
2023-12-30T07:22:51.208Z,95336.34
2023-12-30T07:25:20.595Z,95329.22
2023-12-30T07:27:50.596Z,95326.78
2023-12-30T07:30:20.163Z,95332.53
2023-12-30T07:32:49.467Z,95336.75
2023-12-30T07:35:19.095Z,95343.75
2023-12-30T07:37:48.580Z,95343.78
2023-12-30T07:40:19.315Z,95345.69
2023-12-30T07:42:48.694Z,95346.19
2023-12-30T07:45:18.063Z,95345.41
2023-12-30T07:47:47.769Z,95350.53
2023-12-30T07:50:17.293Z,95348.47
2023-12-30T07:52:46.554Z,95355.16
2023-12-30T07:55:16.090Z,95363.31
2023-12-30T07:57:46.896Z,95363.72
2023-12-30T08:00:17.410Z,95374.56
2023-12-30T08:02:46.832Z,95381.63
2023-12-30T08:05:16.409Z,95377.69
2023-12-30T08:07:46.207Z,95384.44
2023-12-30T08:10:16.218Z,95385.03
2023-12-30T08:12:48.323Z,95384.34
2023-12-30T08:15:17.667Z,95391.50
2023-12-30T08:17:47.076Z,95392.09
2023-12-30T08:20:17.078Z,95401.84
2023-12-30T08:22:46.226Z,95397.91
2023-12-30T08:25:15.786Z,95409.06
2023-12-30T08:27:45.117Z,95399.91
2023-12-30T08:30:16.396Z,95407.28
2023-12-30T08:32:45.919Z,95402.75
2023-12-30T08:35:15.203Z,95397.00
2023-12-30T08:37:44.535Z,95393.34
2023-12-30T08:40:17.070Z,95391.97
2023-12-30T08:42:47.329Z,95395.53
2023-12-30T08:45:20.622Z,95400.63
2023-12-30T08:47:51.639Z,95393.91
2023-12-30T08:50:21.132Z,95391.56
2023-12-30T08:52:50.422Z,95385.31
2023-12-30T08:55:20.134Z,95386.50
2023-12-30T08:57:49.432Z,95384.06
2023-12-30T09:00:20.853Z,95378.50
2023-12-30T09:02:50.324Z,95380.47
2023-12-30T09:05:21.228Z,95391.91
2023-12-30T09:07:51.245Z,95381.47
2023-12-30T09:10:21.361Z,95374.19
2023-12-30T09:12:50.734Z,95368.25
2023-12-30T09:15:21.382Z,95369.53
2023-12-30T09:17:50.765Z,95361.06
2023-12-30T09:20:20.284Z,95351.69
2023-12-30T09:22:49.574Z,95355.84
2023-12-30T09:25:19.456Z,95345.22
2023-12-30T09:27:51.212Z,95350.44
2023-12-30T09:30:22.333Z,95340.75
2023-12-30T09:32:51.685Z,95335.88
2023-12-30T09:35:20.915Z,95335.94
2023-12-30T09:37:50.162Z,95333.31
2023-12-30T09:40:19.961Z,95326.28
2023-12-30T09:42:52.539Z,95327.41
2023-12-30T09:45:24.994Z,95332.94
2023-12-30T09:47:56.186Z,95328.16
2023-12-30T09:50:25.592Z,95327.78
2023-12-30T09:52:55.417Z,95324.72
2023-12-30T09:55:25.877Z,95332.38
2023-12-30T09:57:55.727Z,95318.53
2023-12-30T10:00:30.338Z,95322.56
2023-12-30T10:03:00.717Z,95324.69
2023-12-30T10:05:30.085Z,95310.53
2023-12-30T10:08:00.228Z,95307.81
2023-12-30T10:10:44.990Z,95298.25
2023-12-30T10:13:16.279Z,95302.69
2023-12-30T10:15:46.982Z,95295.81
2023-12-30T10:18:16.859Z,95293.59
2023-12-30T10:20:48.203Z,95297.06
2023-12-30T10:23:17.436Z,95286.09
2023-12-30T10:25:48.770Z,95286.88
2023-12-30T10:28:19.311Z,95286.00
2023-12-30T10:30:50.153Z,95280.84
2023-12-30T10:33:20.018Z,95277.34
2023-12-30T10:35:50.552Z,95267.31
2023-12-30T10:38:21.257Z,95267.72
2023-12-30T10:40:53.628Z,95265.19
2023-12-30T10:43:24.206Z,95260.28
2023-12-30T10:45:59.824Z,95257.50
2023-12-30T10:48:33.073Z,95249.66
2023-12-30T10:51:02.703Z,95240.22
2023-12-30T10:53:34.523Z,95247.88
2023-12-30T10:56:06.111Z,95237.69
2023-12-30T10:58:36.886Z,95227.38
2023-12-30T11:01:12.047Z,95235.44
2023-12-30T11:03:44.506Z,95240.13
2023-12-30T11:06:21.327Z,95233.25
2023-12-30T11:08:50.624Z,95230.53
2023-12-30T11:11:20.699Z,95228.00
2023-12-30T11:13:50.072Z,95223.09
2023-12-30T11:16:22.132Z,95227.91
2023-12-30T11:18:53.021Z,95229.13
2023-12-30T11:21:44.386Z,95223.41
2023-12-30T11:24:14.534Z,95220.44
2023-12-30T11:26:46.855Z,95214.84
2023-12-30T11:29:19.179Z,95212.25
2023-12-30T11:31:50.872Z,95203.03
2023-12-30T11:34:20.840Z,95206.94
2023-12-30T11:36:51.386Z,95203.28
2023-12-30T11:39:26.250Z,95202.56
2023-12-30T11:41:58.357Z,95202.06
2023-12-30T11:44:27.708Z,95199.78
2023-12-30T11:46:58.991Z,95195.41
2023-12-30T11:49:30.166Z,95195.88
2023-12-30T11:52:07.208Z,95200.97
2023-12-30T11:54:37.329Z,95187.66
2023-12-30T11:57:10.822Z,95183.88
2023-12-30T11:59:39.979Z,95186.91
2023-12-30T12:02:13.493Z,95190.88
2023-12-30T12:04:43.677Z,95187.81
2023-12-30T12:07:13.998Z,95181.78
2023-12-30T12:09:44.509Z,95185.59
2023-12-30T12:12:14.733Z,95182.69
2023-12-30T12:14:50.514Z,95183.75
2023-12-30T12:17:24.465Z,95177.13
2023-12-30T12:19:53.788Z,95169.22
2023-12-30T12:22:23.183Z,95166.72
2023-12-30T12:24:52.491Z,95167.16
2023-12-30T12:27:22.694Z,95172.41
2023-12-30T12:29:52.603Z,95170.78
2023-12-30T12:32:24.124Z,95177.31
2023-12-30T12:34:54.318Z,95170.63
2023-12-30T12:37:25.207Z,95163.81
2023-12-30T12:39:54.397Z,95176.00
2023-12-30T12:42:30.023Z,95170.63
2023-12-30T12:45:00.466Z,95174.06
2023-12-30T12:47:32.094Z,95168.19
2023-12-30T12:50:02.308Z,95174.97
2023-12-30T12:52:33.981Z,95170.22
2023-12-30T12:55:04.384Z,95173.03
2023-12-30T12:57:33.790Z,95174.16
2023-12-30T13:00:07.985Z,95169.66
2023-12-30T13:02:39.433Z,95177.91
2023-12-30T13:05:11.179Z,95181.31
2023-12-30T13:07:43.515Z,95183.81
2023-12-30T13:10:37.024Z,95181.88
2023-12-30T13:13:08.549Z,95185.31
2023-12-30T13:15:39.318Z,95189.78
2023-12-30T13:18:14.828Z,95191.06
2023-12-30T13:20:46.722Z,95194.47
2023-12-30T13:23:17.477Z,95197.44
2023-12-30T13:25:48.728Z,95198.56
2023-12-30T13:28:18.830Z,95194.56
2023-12-30T13:30:48.165Z,95195.44
2023-12-30T13:33:22.297Z,95197.75
2023-12-30T13:35:52.318Z,95197.59
2023-12-30T13:38:24.728Z,95199.44
2023-12-30T13:40:59.925Z,95200.75
2023-12-30T13:43:29.543Z,95202.09
2023-12-30T13:46:14.604Z,95191.31
2023-12-30T13:49:19.820Z,95188.59
2023-12-30T13:51:50.418Z,95188.44
2023-12-30T13:54:22.142Z,95195.59
2023-12-30T13:56:56.195Z,95189.78
2023-12-30T13:59:26.821Z,95186.16
2023-12-30T14:01:58.729Z,95176.34
2023-12-30T14:04:31.609Z,95176.81
2023-12-30T14:07:04.014Z,95180.50
2023-12-30T14:09:43.329Z,95182.97
2023-12-30T14:12:12.935Z,95186.25
2023-12-30T14:14:46.394Z,95182.47
2023-12-30T14:17:16.212Z,95175.78
2023-12-30T14:19:46.893Z,95172.81
2023-12-30T14:22:17.418Z,95177.66
2023-12-30T14:24:47.573Z,95183.91
2023-12-30T14:27:17.645Z,95184.28
2023-12-30T14:29:49.588Z,95190.03
2023-12-30T14:32:19.092Z,95195.00
2023-12-30T14:34:57.435Z,95191.34
2023-12-30T14:37:26.783Z,95190.81
2023-12-30T14:39:55.860Z,95184.97
2023-12-30T14:42:26.114Z,95187.03
2023-12-30T14:44:55.220Z,95192.78
2023-12-30T14:47:24.350Z,95192.94
2023-12-30T14:49:54.929Z,95190.16
2023-12-30T14:52:24.140Z,95196.38
2023-12-30T14:55:01.693Z,95196.16
2023-12-30T14:57:32.698Z,95194.31
2023-12-30T15:00:01.906Z,95189.91
2023-12-30T15:02:33.318Z,95198.78
2023-12-30T15:05:04.280Z,95186.66
2023-12-30T15:07:33.598Z,95195.31
2023-12-30T15:10:04.101Z,95191.13
2023-12-30T15:12:33.394Z,95196.31
2023-12-30T15:15:02.356Z,95195.59
2023-12-30T15:17:34.602Z,95204.81
2023-12-30T15:20:07.517Z,95192.66
2023-12-30T15:22:38.194Z,95201.00
2023-12-30T15:25:07.904Z,95201.31
2023-12-30T15:27:37.059Z,95197.44
2023-12-30T15:30:06.854Z,95206.88
2023-12-30T15:32:36.062Z,95193.63
2023-12-30T15:35:08.482Z,95195.38
2023-12-30T15:37:37.839Z,95192.66
2023-12-30T15:40:09.455Z,95198.06
2023-12-30T15:42:38.705Z,95198.34
2023-12-30T15:45:09.135Z,95198.00
2023-12-30T15:47:38.821Z,95200.09
2023-12-30T15:50:10.364Z,95200.91
2023-12-30T15:52:39.941Z,95195.38
2023-12-30T15:55:09.949Z,95196.19
2023-12-30T15:57:39.113Z,95192.38
2023-12-30T16:00:11.457Z,95192.69
2023-12-30T16:02:41.084Z,95197.38
2023-12-30T16:05:12.043Z,95198.03
2023-12-30T16:07:41.435Z,95200.44
2023-12-30T16:10:11.283Z,95210.81
2023-12-30T16:12:41.789Z,95210.81
2023-12-30T16:15:12.560Z,95212.03
2023-12-30T16:17:43.346Z,95218.22
2023-12-30T16:20:14.347Z,95214.41
2023-12-30T16:22:43.675Z,95215.84
2023-12-30T16:25:12.918Z,95219.97
2023-12-30T16:27:42.140Z,95218.97
2023-12-30T16:30:12.115Z,95226.78
2023-12-30T16:32:42.046Z,95225.63
2023-12-30T16:35:11.656Z,95225.44
2023-12-30T16:37:44.039Z,95227.25
2023-12-30T16:40:13.929Z,95232.38
2023-12-30T16:42:43.201Z,95243.97
2023-12-30T16:45:12.837Z,95242.53
2023-12-30T16:47:42.732Z,95236.47
2023-12-30T16:50:12.513Z,95239.31
2023-12-30T16:52:44.415Z,95230.41
2023-12-30T16:55:13.957Z,95238.72
2023-12-30T16:57:43.436Z,95234.06
2023-12-30T17:00:14.678Z,95239.97
2023-12-30T17:02:44.110Z,95238.78
2023-12-30T17:05:13.754Z,95238.78
2023-12-30T17:07:44.404Z,95236.53
2023-12-30T17:10:13.604Z,95237.97
2023-12-30T17:12:42.672Z,95229.66
2023-12-30T17:15:15.658Z,95234.91
2023-12-30T17:17:44.972Z,95234.31
2023-12-30T17:20:17.135Z,95240.81
2023-12-30T17:22:48.399Z,95231.91
2023-12-30T17:25:17.671Z,95236.56
2023-12-30T17:27:47.315Z,95230.69
2023-12-30T17:30:16.960Z,95236.78
2023-12-30T17:32:46.273Z,95236.97
2023-12-30T17:35:15.464Z,95237.97
2023-12-30T17:37:44.740Z,95239.59
2023-12-30T17:40:19.117Z,95249.72
2023-12-30T17:42:49.256Z,95240.44
2023-12-30T17:45:18.620Z,95241.03
2023-12-30T17:47:48.049Z,95240.47
2023-12-30T17:50:17.248Z,95232.19
2023-12-30T17:52:46.715Z,95233.59
2023-12-30T17:55:17.705Z,95231.34
2023-12-30T17:57:47.724Z,95229.72
2023-12-30T18:00:20.067Z,95237.22
2023-12-30T18:02:49.712Z,95242.50
2023-12-30T18:05:18.979Z,95229.75
2023-12-30T18:07:48.607Z,95226.91
2023-12-30T18:10:19.630Z,95224.28
2023-12-30T18:12:49.041Z,95222.66
2023-12-30T18:15:18.239Z,95232.16
2023-12-30T18:17:47.419Z,95240.88
2023-12-30T18:20:19.041Z,95240.28
2023-12-30T18:22:48.477Z,95234.59
2023-12-30T18:25:19.204Z,95238.06
2023-12-30T18:27:48.457Z,95239.25
2023-12-30T18:30:18.073Z,95239.69
2023-12-30T18:32:47.308Z,95243.69
2023-12-30T18:35:16.840Z,95250.38
2023-12-30T18:37:46.126Z,95253.03
2023-12-30T18:40:15.591Z,95250.38
2023-12-30T18:42:46.495Z,95238.66
2023-12-30T18:45:16.177Z,95236.03
2023-12-30T18:47:48.172Z,95235.63
2023-12-30T18:50:19.594Z,95239.84
2023-12-30T18:52:51.042Z,95248.56
2023-12-30T18:55:20.310Z,95243.31
2023-12-30T18:57:51.180Z,95238.44
2023-12-30T19:00:25.286Z,95245.75
2023-12-30T19:02:54.568Z,95244.13
2023-12-30T19:05:24.297Z,95254.63
2023-12-30T19:07:53.516Z,95246.91
2023-12-30T19:10:24.266Z,95256.22
2023-12-30T19:12:58.046Z,95255.63
2023-12-30T19:15:27.403Z,95248.13
2023-12-30T19:17:56.712Z,95237.22
2023-12-30T19:20:25.918Z,95241.28
2023-12-30T19:22:55.706Z,95243.09
2023-12-30T19:25:24.779Z,95236.00
2023-12-30T19:27:54.040Z,95244.09
2023-12-30T19:30:24.708Z,95249.34
2023-12-30T19:32:54.382Z,95260.88
2023-12-30T19:35:24.098Z,95257.81
2023-12-30T19:37:53.773Z,95256.19
2023-12-30T19:40:22.953Z,95260.25
2023-12-30T19:42:52.468Z,95262.28
2023-12-30T19:45:23.605Z,95258.84
2023-12-30T19:47:54.285Z,95270.16
2023-12-30T19:50:23.711Z,95266.56
2023-12-30T19:52:52.873Z,95266.75
2023-12-30T19:55:22.103Z,95272.41
2023-12-30T19:57:51.274Z,95283.09
2023-12-30T20:00:20.703Z,95277.63
2023-12-30T20:02:50.024Z,95279.78
2023-12-30T20:05:20.650Z,95282.78
2023-12-30T20:07:49.847Z,95269.47
2023-12-30T20:10:19.488Z,95271.84
2023-12-30T20:12:48.647Z,95276.72
2023-12-30T20:15:18.299Z,95281.97
2023-12-30T20:17:47.878Z,95281.59
2023-12-30T20:20:17.384Z,95279.97
2023-12-30T20:22:48.093Z,95279.34
2023-12-30T20:25:17.445Z,95268.59
2023-12-30T20:27:47.503Z,95280.50
2023-12-30T20:30:17.135Z,95285.34
2023-12-30T20:32:46.394Z,95279.09
2023-12-30T20:35:15.938Z,95284.72
2023-12-30T20:37:45.132Z,95287.72
2023-12-30T20:40:16.020Z,95286.97
2023-12-30T20:42:45.793Z,95290.59
2023-12-30T20:45:15.730Z,95284.91
2023-12-30T20:47:44.744Z,95286.56
2023-12-30T20:50:14.556Z,95282.31
2023-12-30T20:52:43.790Z,95290.59
2023-12-30T20:55:14.408Z,95280.09
2023-12-30T20:57:45.338Z,95294.41
2023-12-30T21:00:15.700Z,95299.28
2023-12-30T21:02:45.733Z,95304.13
2023-12-30T21:05:16.411Z,95293.22
2023-12-30T21:07:45.725Z,95302.91
2023-12-30T21:10:16.382Z,95295.22
2023-12-30T21:12:48.501Z,95291.22
2023-12-30T21:15:17.716Z,95290.00
2023-12-30T21:17:46.928Z,95288.41
2023-12-30T21:20:16.131Z,95284.38
2023-12-30T21:22:45.336Z,95281.53
2023-12-30T21:25:19.679Z,95278.91
2023-12-30T21:27:57.312Z,95286.22
2023-12-30T21:30:26.684Z,95293.88
2023-12-30T21:32:56.125Z,95279.72
2023-12-30T21:35:25.326Z,95284.22
2023-12-30T21:37:54.330Z,95290.84
2023-12-30T21:40:24.038Z,95291.25
2023-12-30T21:42:53.223Z,95282.97
2023-12-30T21:45:23.731Z,95278.09
2023-12-30T21:47:53.113Z,95284.84
2023-12-30T21:50:22.427Z,95281.97
2023-12-30T21:52:53.307Z,95277.97
2023-12-30T21:55:25.267Z,95283.22
2023-12-30T21:57:54.303Z,95285.22
2023-12-30T22:00:24.806Z,95280.53
2023-12-30T22:02:54.098Z,95286.00
2023-12-30T22:05:23.339Z,95282.22
2023-12-30T22:07:52.397Z,95287.03
2023-12-30T22:10:21.471Z,95289.47
2023-12-30T22:12:50.706Z,95285.91
2023-12-30T22:15:19.710Z,95283.28
2023-12-30T22:17:50.240Z,95274.97
2023-12-30T22:20:19.358Z,95282.03
2023-12-30T22:22:48.516Z,95271.25
2023-12-30T22:25:17.768Z,95275.09
2023-12-30T22:27:48.229Z,95272.47
2023-12-30T22:30:17.585Z,95270.84
2023-12-30T22:32:46.697Z,95275.28
2023-12-30T22:35:17.784Z,95269.84
2023-12-30T22:37:47.041Z,95280.13
2023-12-30T22:40:16.217Z,95275.25
2023-12-30T22:42:45.356Z,95269.53
2023-12-30T22:45:14.904Z,95270.97
2023-12-30T22:47:44.112Z,95265.31
2023-12-30T22:50:13.412Z,95269.00
2023-12-30T22:52:44.347Z,95270.25
2023-12-30T22:55:13.787Z,95270.44
2023-12-30T22:57:42.968Z,95267.22
2023-12-30T23:00:15.137Z,95269.69
2023-12-30T23:02:44.316Z,95258.00
2023-12-30T23:05:13.521Z,95259.59
2023-12-30T23:07:46.808Z,95251.97
2023-12-30T23:10:16.406Z,95249.97
2023-12-30T23:12:46.420Z,95243.91
2023-12-30T23:15:16.046Z,95241.31
2023-12-30T23:17:46.229Z,95245.56
2023-12-30T23:20:16.111Z,95243.97
2023-12-30T23:22:46.611Z,95244.38
2023-12-30T23:25:16.354Z,95251.44
2023-12-30T23:27:47.913Z,95246.00
2023-12-30T23:30:17.893Z,95246.00
2023-12-30T23:32:47.492Z,95249.69
2023-12-30T23:35:16.687Z,95243.19
2023-12-30T23:37:48.346Z,95246.03
2023-12-30T23:40:17.904Z,95244.19
2023-12-30T23:42:48.558Z,95255.50
2023-12-30T23:45:17.914Z,95244.84
2023-12-30T23:47:47.102Z,95245.06
2023-12-30T23:50:16.463Z,95235.19
2023-12-30T23:52:50.048Z,95241.19
2023-12-30T23:55:19.358Z,95237.38
2023-12-30T23:57:48.839Z,95230.28
